CCA8216 ZSJN-ZUGY
Flight info
| Callsign | CCA8216 |
|---|---|
| Flight time | N/A |
| Altitude | 38100 |
| Route | EXUVU9Z EXUVU W4 LIMGI W152 TAREX W278 AVDIG W276 ARELA W30 TAMUS/K0887S1190 W180 IVSOL/K0893S1160 W180 MEMAG MEMAG7X |
| Aircraft | B77W/H-SDE1E2E3FGHIJ2J3J4J5M1RWXY/LB1D1 |
Departure
| Time | 2026-04-19 11:31 |
|---|---|
| Airport | Jinan Yaoqiang International Airport (ZSJN) |
Arrival
| Time | N/A |
|---|---|
| Airport | Guiyang Longdongbao International Airport (ZUGY) |
| Time | Latitude | Longitude | Altitude | Speed | Heading |
|---|---|---|---|---|---|
| 2026-04-19 10:52 | 36.84728 | 117.21165 | 90 ft | 0 kts | 270° |
| 2026-04-19 11:19 | 36.84728 | 117.21175 | 90 ft | 2 kts | 270° |
| 2026-04-19 11:19 | 36.84728 | 117.21193 | 90 ft | 2 kts | 270° |
| 2026-04-19 11:20 | 36.84727 | 117.21206 | 90 ft | 1 kts | 270° |
| 2026-04-19 11:20 | 36.84728 | 117.21223 | 90 ft | 2 kts | 256° |
| 2026-04-19 11:20 | 36.84733 | 117.21241 | 90 ft | 2 kts | 238° |
| 2026-04-19 11:20 | 36.84742 | 117.21255 | 90 ft | 2 kts | 223° |
| 2026-04-19 11:21 | 36.84754 | 117.21266 | 90 ft | 2 kts | 207° |
| 2026-04-19 11:21 | 36.84768 | 117.21273 | 90 ft | 2 kts | 191° |
| 2026-04-19 11:21 | 36.84778 | 117.21275 | 90 ft | 0 kts | 180° |
| 2026-04-19 11:22 | 36.84781 | 117.21275 | 90 ft | 0 kts | 179° |
| 2026-04-19 11:24 | 36.84778 | 117.21275 | 90 ft | 0 kts | 179° |
| 2026-04-19 11:24 | 36.84768 | 117.21275 | 90 ft | 2 kts | 179° |
| 2026-04-19 11:25 | 36.84750 | 117.21275 | 90 ft | 3 kts | 179° |
| 2026-04-19 11:25 | 36.84723 | 117.21275 | 90 ft | 4 kts | 181° |
| 2026-04-19 11:25 | 36.84689 | 117.21275 | 90 ft | 5 kts | 181° |
| 2026-04-19 11:25 | 36.84647 | 117.21274 | 90 ft | 6 kts | 180° |
| 2026-04-19 11:26 | 36.84598 | 117.21274 | 90 ft | 7 kts | 180° |
| 2026-04-19 11:26 | 36.84544 | 117.21274 | 90 ft | 8 kts | 180° |
| 2026-04-19 11:26 | 36.84486 | 117.21273 | 90 ft | 8 kts | 180° |
| 2026-04-19 11:26 | 36.84422 | 117.21273 | 90 ft | 9 kts | 180° |
| 2026-04-19 11:27 | 36.84354 | 117.21273 | 90 ft | 9 kts | 180° |
| 2026-04-19 11:27 | 36.84283 | 117.21273 | 90 ft | 10 kts | 179° |
| 2026-04-19 11:27 | 36.84208 | 117.21273 | 90 ft | 10 kts | 180° |
| 2026-04-19 11:27 | 36.84137 | 117.21294 | 90 ft | 10 kts | 134° |
| 2026-04-19 11:28 | 36.84119 | 117.21383 | 90 ft | 10 kts | 93° |
| 2026-04-19 11:28 | 36.84119 | 117.21419 | 90 ft | 0 kts | 89° |
| 2026-04-19 11:28 | 36.84119 | 117.21420 | 90 ft | 1 kts | 89° |
| 2026-04-19 11:29 | 36.84119 | 117.21441 | 90 ft | 3 kts | 89° |
| 2026-04-19 11:29 | 36.84119 | 117.21483 | 90 ft | 5 kts | 88° |
| 2026-04-19 11:29 | 36.84123 | 117.21543 | 90 ft | 7 kts | 76° |
| 2026-04-19 11:29 | 36.84159 | 117.21594 | 90 ft | 8 kts | 20° |
| 2026-04-19 11:30 | 36.84227 | 117.21600 | 90 ft | 10 kts | 2° |
| 2026-04-19 11:30 | 36.84303 | 117.21600 | 90 ft | 12 kts | 360° |
| 2026-04-19 11:30 | 36.84513 | 117.21600 | 90 ft | 69 kts | 360° |
| 2026-04-19 11:30 | 36.85351 | 117.21598 | 163 ft | 162 kts | 359° |
| 2026-04-19 11:31 | 36.86616 | 117.21571 | 978 ft | 200 kts | 360° |
| 2026-04-19 11:31 | 36.87888 | 117.21588 | 2972 ft | 195 kts | 0° |
| 2026-04-19 11:31 | 36.89279 | 117.21601 | 4175 ft | 222 kts | 359° |
| 2026-04-19 11:31 | 36.90998 | 117.21600 | 4818 ft | 277 kts | 359° |
| 2026-04-19 11:32 | 36.92985 | 117.21599 | 6222 ft | 298 kts | 359° |
| 2026-04-19 11:32 | 36.94970 | 117.21600 | 8347 ft | 289 kts | 359° |
| 2026-04-19 11:32 | 36.96938 | 117.21600 | 9972 ft | 294 kts | 358° |
| 2026-04-19 11:32 | 36.99021 | 117.21585 | 11265 ft | 311 kts | 355° |
| 2026-04-19 11:33 | 37.01211 | 117.21275 | 12303 ft | 334 kts | 346° |
| 2026-04-19 11:33 | 37.03591 | 117.20456 | 12746 ft | 376 kts | 336° |
| 2026-04-19 11:33 | 37.06083 | 117.18938 | 12935 ft | 421 kts | 324° |
| 2026-04-19 11:33 | 37.08359 | 117.16679 | 14258 ft | 412 kts | 312° |
| 2026-04-19 11:34 | 37.10173 | 117.14071 | 15756 ft | 395 kts | 301° |
| 2026-04-19 11:34 | 37.11560 | 117.11236 | 16970 ft | 383 kts | 291° |
| 2026-04-19 11:34 | 37.12556 | 117.08171 | 17930 ft | 379 kts | 282° |
| 2026-04-19 11:34 | 37.13129 | 117.04955 | 18799 ft | 379 kts | 274° |
| 2026-04-19 11:35 | 37.13283 | 117.01668 | 19485 ft | 379 kts | 266° |
| 2026-04-19 11:35 | 37.13195 | 116.98393 | 19665 ft | 380 kts | 266° |
| 2026-04-19 11:35 | 37.13181 | 116.95062 | 19706 ft | 389 kts | 268° |
| 2026-04-19 11:35 | 37.13268 | 116.91656 | 20449 ft | 395 kts | 270° |
| 2026-04-19 11:36 | 37.13417 | 116.88259 | 21305 ft | 387 kts | 272° |
| 2026-04-19 11:36 | 37.13473 | 116.84917 | 21645 ft | 383 kts | 267° |
| 2026-04-19 11:36 | 37.13155 | 116.81541 | 21892 ft | 394 kts | 259° |
| 2026-04-19 11:36 | 37.12414 | 116.78275 | 22862 ft | 393 kts | 252° |
| 2026-04-19 11:37 | 37.11418 | 116.75150 | 23977 ft | 387 kts | 250° |
| 2026-04-19 11:37 | 37.10400 | 116.72029 | 24788 ft | 389 kts | 251° |
| 2026-04-19 11:37 | 37.09369 | 116.68900 | 25377 ft | 395 kts | 251° |
| 2026-04-19 11:37 | 37.08303 | 116.65701 | 25934 ft | 403 kts | 251° |
| 2026-04-19 11:38 | 37.07211 | 116.62452 | 26652 ft | 405 kts | 250° |
| 2026-04-19 11:38 | 37.06110 | 116.59198 | 27363 ft | 409 kts | 251° |
| 2026-04-19 11:38 | 37.04992 | 116.55894 | 27577 ft | 416 kts | 250° |
| 2026-04-19 11:38 | 37.03869 | 116.52593 | 27586 ft | 413 kts | 251° |
| 2026-04-19 11:39 | 37.02740 | 116.49284 | 27598 ft | 414 kts | 251° |
| 2026-04-19 11:39 | 37.01594 | 116.45923 | 27821 ft | 425 kts | 250° |
| 2026-04-19 11:39 | 37.00433 | 116.42532 | 28613 ft | 426 kts | 251° |
| 2026-04-19 11:39 | 36.99277 | 116.39159 | 29493 ft | 424 kts | 250° |
| 2026-04-19 11:40 | 36.98109 | 116.35754 | 30284 ft | 425 kts | 250° |
| 2026-04-19 11:40 | 36.96959 | 116.32411 | 31238 ft | 421 kts | 251° |
| 2026-04-19 11:40 | 36.95794 | 116.29024 | 31984 ft | 421 kts | 250° |
| 2026-04-19 11:40 | 36.94637 | 116.25663 | 32125 ft | 422 kts | 250° |
| 2026-04-19 11:41 | 36.93502 | 116.22369 | 32425 ft | 429 kts | 251° |
| 2026-04-19 11:41 | 36.92320 | 116.18948 | 33434 ft | 422 kts | 249° |
| 2026-04-19 11:41 | 36.91163 | 116.15604 | 34038 ft | 416 kts | 250° |
| 2026-04-19 11:42 | 36.88876 | 116.08998 | 34120 ft | 408 kts | 250° |
| 2026-04-19 11:42 | 36.86633 | 116.02535 | 34117 ft | 405 kts | 251° |
| 2026-04-19 11:43 | 36.84361 | 115.95995 | 34120 ft | 410 kts | 251° |
| 2026-04-19 11:43 | 36.82091 | 115.89478 | 34126 ft | 414 kts | 250° |
| 2026-04-19 11:43 | 36.80933 | 115.86153 | 34125 ft | 425 kts | 251° |
| 2026-04-19 11:44 | 36.79735 | 115.82722 | 34126 ft | 435 kts | 251° |
| 2026-04-19 11:44 | 36.77285 | 115.75726 | 34121 ft | 443 kts | 250° |
| 2026-04-19 11:45 | 36.74808 | 115.68677 | 34122 ft | 449 kts | 250° |
| 2026-04-19 11:45 | 36.72302 | 115.61564 | 34120 ft | 450 kts | 250° |
| 2026-04-19 11:46 | 36.69802 | 115.54484 | 34112 ft | 445 kts | 250° |
| 2026-04-19 11:46 | 36.67315 | 115.47455 | 34110 ft | 443 kts | 250° |
| 2026-04-19 11:47 | 36.64911 | 115.40675 | 34117 ft | 443 kts | 250° |
| 2026-04-19 11:47 | 36.62504 | 115.33900 | 34122 ft | 445 kts | 250° |
| 2026-04-19 11:48 | 36.59977 | 115.26794 | 34139 ft | 449 kts | 249° |
| 2026-04-19 11:48 | 36.57470 | 115.19767 | 34138 ft | 450 kts | 249° |
| 2026-04-19 11:49 | 36.54286 | 115.13180 | 34135 ft | 452 kts | 235° |
| 2026-04-19 11:49 | 36.52109 | 115.10293 | 34133 ft | 464 kts | 229° |
| 2026-04-19 11:49 | 36.50114 | 115.07913 | 34135 ft | 463 kts | 230° |
| 2026-04-19 11:50 | 36.45794 | 115.02811 | 34145 ft | 465 kts | 229° |
| 2026-04-19 11:50 | 36.41109 | 114.97286 | 34129 ft | 464 kts | 229° |
| 2026-04-19 11:51 | 36.36556 | 114.91573 | 34142 ft | 465 kts | 236° |
| 2026-04-19 11:51 | 36.33114 | 114.84866 | 34137 ft | 460 kts | 243° |
| 2026-04-19 11:52 | 36.29891 | 114.78038 | 34132 ft | 456 kts | 244° |
| 2026-04-19 11:52 | 36.26671 | 114.71272 | 34151 ft | 462 kts | 243° |
| 2026-04-19 11:53 | 36.23574 | 114.64950 | 34139 ft | 457 kts | 243° |
| 2026-04-19 11:53 | 36.20261 | 114.58191 | 34139 ft | 458 kts | 243° |
| 2026-04-19 11:54 | 36.16930 | 114.51406 | 34151 ft | 462 kts | 243° |
| 2026-04-19 11:54 | 36.13597 | 114.44630 | 34142 ft | 460 kts | 243° |
| 2026-04-19 11:55 | 36.10271 | 114.37882 | 34119 ft | 458 kts | 243° |
| 2026-04-19 11:55 | 36.06943 | 114.31138 | 34134 ft | 462 kts | 243° |
| 2026-04-19 11:56 | 36.03587 | 114.24353 | 34154 ft | 462 kts | 243° |
| 2026-04-19 11:56 | 36.00366 | 114.17854 | 34085 ft | 459 kts | 243° |
| 2026-04-19 11:57 | 35.97134 | 114.11346 | 34012 ft | 455 kts | 243° |
| 2026-04-19 11:57 | 35.94022 | 114.05092 | 33962 ft | 449 kts | 243° |
| 2026-04-19 11:58 | 35.90772 | 113.98570 | 33992 ft | 448 kts | 244° |
| 2026-04-19 11:58 | 35.87469 | 113.91949 | 33998 ft | 457 kts | 244° |
| 2026-04-19 11:59 | 35.84144 | 113.85304 | 33986 ft | 453 kts | 243° |
| 2026-04-19 11:59 | 35.81165 | 113.79362 | 34011 ft | 453 kts | 243° |
| 2026-04-19 12:00 | 35.77914 | 113.72882 | 34004 ft | 458 kts | 243° |
| 2026-04-19 12:00 | 35.74769 | 113.66632 | 34018 ft | 456 kts | 243° |
| 2026-04-19 12:01 | 35.71468 | 113.60083 | 34041 ft | 456 kts | 244° |
| 2026-04-19 12:01 | 35.68107 | 113.53425 | 34062 ft | 461 kts | 244° |
| 2026-04-19 12:02 | 35.65145 | 113.47571 | 34077 ft | 461 kts | 244° |
| 2026-04-19 12:02 | 35.61764 | 113.40898 | 34068 ft | 461 kts | 243° |
| 2026-04-19 12:03 | 35.58510 | 113.34357 | 34069 ft | 459 kts | 244° |
| 2026-04-19 12:03 | 35.55228 | 113.27674 | 34083 ft | 463 kts | 244° |
| 2026-04-19 12:04 | 35.51933 | 113.20991 | 34094 ft | 463 kts | 244° |
| 2026-04-19 12:04 | 35.48570 | 113.14185 | 34096 ft | 466 kts | 243° |
| 2026-04-19 12:05 | 35.45210 | 113.07404 | 34061 ft | 463 kts | 243° |
| 2026-04-19 12:05 | 35.41989 | 113.00917 | 34083 ft | 465 kts | 244° |
| 2026-04-19 12:06 | 35.39117 | 112.95142 | 34040 ft | 462 kts | 243° |
| 2026-04-19 12:06 | 35.35735 | 112.88354 | 34055 ft | 463 kts | 243° |
| 2026-04-19 12:07 | 35.32717 | 112.82312 | 34053 ft | 460 kts | 244° |
| 2026-04-19 12:07 | 35.29699 | 112.76273 | 34056 ft | 465 kts | 243° |
| 2026-04-19 12:08 | 35.26315 | 112.69518 | 34057 ft | 463 kts | 243° |
| 2026-04-19 12:08 | 35.22934 | 112.62783 | 34085 ft | 465 kts | 243° |
| 2026-04-19 12:09 | 35.19550 | 112.56046 | 34071 ft | 465 kts | 243° |
| 2026-04-19 12:09 | 35.16205 | 112.49288 | 34062 ft | 465 kts | 243° |
| 2026-04-19 12:10 | 35.12844 | 112.42509 | 34033 ft | 466 kts | 243° |
| 2026-04-19 12:10 | 35.09486 | 112.35754 | 34029 ft | 468 kts | 243° |
| 2026-04-19 12:11 | 35.06088 | 112.28932 | 34040 ft | 467 kts | 242° |
| 2026-04-19 12:11 | 35.02700 | 112.22145 | 34036 ft | 469 kts | 242° |
| 2026-04-19 12:12 | 34.99431 | 112.15609 | 34045 ft | 468 kts | 242° |
| 2026-04-19 12:12 | 34.96555 | 112.09869 | 34056 ft | 469 kts | 242° |
| 2026-04-19 12:13 | 34.93239 | 112.03264 | 34063 ft | 470 kts | 242° |
| 2026-04-19 12:13 | 34.89903 | 111.96632 | 34059 ft | 467 kts | 242° |
| 2026-04-19 12:14 | 34.86478 | 111.89821 | 34065 ft | 469 kts | 242° |
| 2026-04-19 12:14 | 34.83145 | 111.83114 | 34072 ft | 468 kts | 243° |
| 2026-04-19 12:15 | 34.79800 | 111.76391 | 34072 ft | 469 kts | 243° |
| 2026-04-19 12:15 | 34.76423 | 111.69621 | 34085 ft | 467 kts | 243° |
| 2026-04-19 12:16 | 34.73066 | 111.62907 | 34099 ft | 466 kts | 243° |
| 2026-04-19 12:16 | 34.69702 | 111.56189 | 34107 ft | 467 kts | 243° |
| 2026-04-19 12:17 | 34.66326 | 111.49462 | 34114 ft | 468 kts | 243° |
| 2026-04-19 12:17 | 34.62932 | 111.42712 | 34121 ft | 468 kts | 243° |
| 2026-04-19 12:18 | 34.59583 | 111.36066 | 34153 ft | 467 kts | 243° |
| 2026-04-19 12:18 | 34.56158 | 111.29281 | 34162 ft | 468 kts | 243° |
| 2026-04-19 12:19 | 34.53041 | 111.23116 | 34165 ft | 468 kts | 243° |
| 2026-04-19 12:19 | 34.49862 | 111.16841 | 34181 ft | 468 kts | 243° |
| 2026-04-19 12:20 | 34.47729 | 111.12638 | 34177 ft | 466 kts | 243° |
| 2026-04-19 12:20 | 34.45745 | 111.08730 | 34175 ft | 469 kts | 243° |
| 2026-04-19 12:21 | 34.43836 | 111.04977 | 34178 ft | 467 kts | 243° |
| 2026-04-19 12:21 | 34.41798 | 111.00950 | 34171 ft | 469 kts | 243° |
| 2026-04-19 12:22 | 34.39813 | 110.96970 | 34178 ft | 470 kts | 243° |
| 2026-04-19 12:22 | 34.37775 | 110.92888 | 34185 ft | 467 kts | 243° |
| 2026-04-19 12:23 | 34.35666 | 110.88670 | 34185 ft | 469 kts | 243° |
| 2026-04-19 12:23 | 34.33554 | 110.84452 | 34185 ft | 470 kts | 243° |
| 2026-04-19 12:24 | 34.31535 | 110.80428 | 34186 ft | 467 kts | 243° |
| 2026-04-19 12:24 | 34.29466 | 110.76306 | 34201 ft | 469 kts | 243° |
| 2026-04-19 12:25 | 34.27449 | 110.72295 | 34183 ft | 468 kts | 243° |
| 2026-04-19 12:25 | 34.25319 | 110.68063 | 34202 ft | 466 kts | 243° |
| 2026-04-19 12:26 | 34.23145 | 110.63750 | 34183 ft | 471 kts | 243° |
| 2026-04-19 12:26 | 34.21127 | 110.59749 | 34199 ft | 469 kts | 243° |
| 2026-04-19 12:27 | 34.19083 | 110.55705 | 34206 ft | 468 kts | 243° |
| 2026-04-19 12:27 | 34.17072 | 110.51728 | 34185 ft | 470 kts | 243° |
| 2026-04-19 12:28 | 34.13987 | 110.45640 | 34202 ft | 465 kts | 243° |
| 2026-04-19 12:28 | 34.12000 | 110.41692 | 34196 ft | 468 kts | 243° |
| 2026-04-19 12:29 | 34.10029 | 110.37762 | 34183 ft | 467 kts | 243° |
| 2026-04-19 12:29 | 34.07907 | 110.33535 | 34203 ft | 467 kts | 242° |
| 2026-04-19 12:30 | 34.05947 | 110.29639 | 34211 ft | 466 kts | 242° |
| 2026-04-19 12:30 | 34.03923 | 110.25617 | 34213 ft | 466 kts | 242° |
| 2026-04-19 12:31 | 34.01742 | 110.21290 | 34200 ft | 468 kts | 242° |
| 2026-04-19 12:31 | 33.99652 | 110.17151 | 34218 ft | 465 kts | 242° |
| 2026-04-19 12:32 | 33.97655 | 110.13200 | 34218 ft | 465 kts | 242° |
| 2026-04-19 12:32 | 33.95662 | 110.09260 | 34212 ft | 465 kts | 242° |
| 2026-04-19 12:33 | 33.93574 | 110.05138 | 34208 ft | 465 kts | 242° |
| 2026-04-19 12:33 | 33.91614 | 110.01272 | 34215 ft | 464 kts | 242° |
| 2026-04-19 12:34 | 33.89478 | 109.97063 | 34203 ft | 465 kts | 242° |
| 2026-04-19 12:34 | 33.87634 | 109.92674 | 34210 ft | 461 kts | 251° |
| 2026-04-19 12:35 | 33.86459 | 109.88049 | 34234 ft | 459 kts | 257° |
| 2026-04-19 12:35 | 33.85437 | 109.83387 | 34206 ft | 458 kts | 257° |
| 2026-04-19 12:36 | 33.84394 | 109.78616 | 34218 ft | 458 kts | 257° |
| 2026-04-19 12:36 | 33.83388 | 109.74033 | 34239 ft | 458 kts | 257° |
| 2026-04-19 12:37 | 33.82425 | 109.69660 | 34246 ft | 458 kts | 257° |
| 2026-04-19 12:37 | 33.81432 | 109.65166 | 34240 ft | 457 kts | 257° |
| 2026-04-19 12:38 | 33.80208 | 109.60864 | 34181 ft | 459 kts | 248° |
| 2026-04-19 12:38 | 33.78296 | 109.56791 | 34251 ft | 464 kts | 238° |
| 2026-04-19 12:39 | 33.75988 | 109.53443 | 34217 ft | 467 kts | 229° |
| 2026-04-19 12:39 | 33.73026 | 109.50459 | 34250 ft | 470 kts | 219° |
| 2026-04-19 12:40 | 33.69627 | 109.47912 | 34221 ft | 477 kts | 215° |
| 2026-04-19 12:40 | 33.66005 | 109.45331 | 34228 ft | 477 kts | 216° |
| 2026-04-19 12:41 | 33.62537 | 109.42871 | 34227 ft | 478 kts | 215° |
| 2026-04-19 12:41 | 33.58984 | 109.40358 | 34222 ft | 478 kts | 215° |
| 2026-04-19 12:42 | 33.55472 | 109.37878 | 34205 ft | 477 kts | 215° |
| 2026-04-19 12:42 | 33.52047 | 109.35463 | 34195 ft | 477 kts | 215° |
| 2026-04-19 12:43 | 33.48378 | 109.32880 | 34212 ft | 478 kts | 214° |
| 2026-04-19 12:43 | 33.45141 | 109.30604 | 34225 ft | 478 kts | 215° |
| 2026-04-19 12:44 | 33.41743 | 109.28217 | 34237 ft | 476 kts | 214° |
| 2026-04-19 12:44 | 33.38272 | 109.25781 | 34226 ft | 475 kts | 214° |
| 2026-04-19 12:45 | 33.34698 | 109.23276 | 34217 ft | 478 kts | 214° |
| 2026-04-19 12:45 | 33.31312 | 109.20905 | 34209 ft | 477 kts | 214° |
| 2026-04-19 12:46 | 33.27705 | 109.18381 | 34212 ft | 475 kts | 214° |
| 2026-04-19 12:46 | 33.26662 | 109.17653 | 34218 ft | 475 kts | 214° |